Time;durP1;ratioP1;P1;durP2;ratioP2;P2;SDS_P1;SDS_P2;PMS_P1;PMS_P2;Temp;Humidity;BMP_temperature;BMP_pressure;BME280_temperature;BME280_humidity;BME280_pressure;Samples;Min_cycle;Max_cycle;Signal;HPM_P1;HPM_P2
2022/05/17 00:02:08;;;;;;;;;8.00;8.00;;;;;22.58;49.49;101456.56;5120280;27;45310;-74
2022/05/17 00:04:34;;;;;;;;;22.00;19.33;;;;;22.51;49.58;101446.78;5101218;27;48729;-75
2022/05/17 00:07:01;;;;;;;;;9.00;6.00;;;;;22.52;50.27;101460.13;5119963;27;46725;-72
2022/05/17 00:09:27;;;;;;;;;6.00;6.00;;;;;22.50;50.15;101448.66;5101417;27;45596;-74
2022/05/17 00:11:52;;;;;;;;;5.33;5.33;;;;;22.47;50.32;101459.91;5120405;27;45222;-76
2022/05/17 00:14:18;;;;;;;;;7.00;6.00;;;;;21.50;50.24;101298.56;5101581;27;47438;-76
2022/05/17 00:16:45;;;;;;;;;3.67;3.67;;;;;22.28;50.52;101431.72;5120159;27;45470;-73
2022/05/17 00:19:13;;;;;;;;;6.00;6.00;;;;;22.41;50.50;101444.44;5101274;27;45429;-75
2022/05/17 00:21:39;;;;;;;;;5.67;5.00;;;;;22.33;50.47;101437.34;5101208;27;45293;-72
2022/05/17 00:24:06;;;;;;;;;7.00;4.00;;;;;22.26;51.04;101422.97;5119506;27;46155;-74
2022/05/17 00:26:34;;;;;;;;;6.00;6.00;;;;;22.35;50.91;101437.16;5119299;27;45243;-73
2022/05/17 00:29:01;;;;;;;;;5.00;5.00;;;;;22.02;50.97;101389.09;5119706;27;45474;-74
2022/05/17 00:31:27;;;;;;;;;6.00;5.67;;;;;22.33;51.04;101444.66;5119727;27;45439;-74
2022/05/17 00:33:53;;;;;;;;;4.33;4.33;;;;;22.01;51.29;101387.41;5100505;27;47023;-75
2022/05/17 00:36:19;;;;;;;;;9.00;7.00;;;;;19.82;51.34;101060.22;5101237;27;45329;-73
2022/05/17 00:38:45;;;;;;;;;5.33;5.33;;;;;22.00;51.09;101396.59;5100909;27;45501;-75
2022/05/17 00:41:10;;;;;;;;;6.33;5.00;;;;;22.25;51.07;101436.72;5103008;27;45492;-74
2022/05/17 00:46:37;;;;;;;;;6.67;6.00;;;;;22.13;51.33;101421.03;5119153;27;45320;-72
2022/05/17 00:49:02;;;;;;;;;5.33;5.33;;;;;22.13;50.75;101423.75;5119275;27;45304;-73
2022/05/17 00:51:29;;;;;;;;;4.33;4.33;;;;;22.11;51.61;101415.00;5119415;27;45266;-72
2022/05/17 00:54:04;;;;;;;;;4.33;4.33;;;;;22.07;51.39;101418.31;5118946;27;47635;-74
2022/05/17 00:56:30;;;;;;;;;6.67;6.00;;;;;21.47;51.67;101314.38;5100357;27;45426;-74
2022/05/17 00:59:00;;;;;;;;;4.67;4.00;;;;;21.91;51.16;101394.28;5118921;27;45475;-72
2022/05/17 01:01:29;;;;;;;;;7.00;5.00;;;;;21.35;51.50;101308.69;5119253;27;45576;-75
2022/05/17 01:04:20;;;;;;;;;5.33;4.33;;;;;22.10;51.60;101426.03;5100325;27;47944;-72
2022/05/17 01:06:51;;;;;;;;;6.00;6.00;;;;;21.83;51.58;101384.47;5100267;27;45386;-71
2022/05/17 01:09:17;;;;;;;;;4.00;4.00;;;;;22.10;51.50;101426.88;5100283;27;45535;-74
2022/05/17 01:11:43;;;;;;;;;5.33;5.33;;;;;21.90;51.70;101396.16;5100223;27;45671;-75
2022/05/17 01:16:54;;;;;;;;;3.33;3.33;;;;;21.91;51.66;101397.81;5118686;27;45507;-74
2022/05/17 01:19:20;;;;;;;;;3.33;3.33;;;;;21.99;51.27;101419.28;5100257;27;45417;-73
2022/05/17 01:21:45;;;;;;;;;4.00;4.00;;;;;21.97;51.55;101407.81;5100390;27;45248;-73
2022/05/17 01:24:11;;;;;;;;;3.67;3.67;;;;;21.95;51.48;101398.25;5118417;27;45785;-73
2022/05/17 01:26:43;;;;;;;;;5.67;4.00;;;;;21.66;51.37;101372.31;5118807;27;45354;-74
2022/05/17 01:29:11;;;;;;;;;3.00;3.00;;;;;21.96;51.62;101422.41;5100180;27;45407;-74
2022/05/17 01:31:38;;;;;;;;;4.67;4.00;;;;;21.77;51.82;101386.09;5100148;27;45458;-74
2022/05/17 01:34:11;;;;;;;;;3.00;2.00;;;;;21.89;51.57;101421.56;5120695;27;46423;-74
2022/05/17 01:36:38;;;;;;;;;4.00;4.00;;;;;21.07;52.01;101287.09;5118670;27;45272;-75
2022/05/17 01:39:04;;;;;;;;;6.00;6.00;;;;;21.02;51.61;101277.91;5099985;27;45300;-75
2022/05/17 01:41:31;;;;;;;;;7.33;5.67;;;;;21.80;51.59;101407.34;5118638;27;45593;-72
2022/05/17 01:43:56;;;;;;;;;10.67;7.00;;;;;21.60;51.91;101394.75;5118317;27;45638;-75
2022/05/17 01:46:22;;;;;;;;;4.00;4.00;;;;;21.79;51.88;101424.63;5099918;27;46005;-73
2022/05/17 01:48:48;;;;;;;;;4.00;4.00;;;;;21.59;52.60;101393.91;5118465;27;45485;-73
2022/05/17 01:51:14;;;;;;;;;6.67;5.33;;;;;21.69;51.87;101407.09;5118433;27;45576;-73
2022/05/17 01:53:39;;;;;;;;;4.67;4.67;;;;;21.60;52.09;101383.94;5118278;27;46523;-74
2022/05/17 01:56:07;;;;;;;;;6.33;6.33;;;;;21.78;52.21;101424.81;5117973;27;45537;-75
2022/05/17 01:58:33;;;;;;;;;4.67;4.33;;;;;21.38;52.28;101358.84;5099646;27;45535;-74
2022/05/17 02:00:58;;;;;;;;;5.00;5.00;;;;;21.22;52.44;101331.09;5118491;27;45606;-74
2022/05/17 02:03:25;;;;;;;;;5.00;5.00;;;;;21.76;52.62;101418.78;5099291;27;47820;-76
2022/05/17 02:05:50;;;;;;;;;6.00;6.00;;;;;21.41;53.32;101369.25;5117951;27;45279;-73
2022/05/17 02:08:16;;;;;;;;;6.33;6.33;;;;;21.69;53.34;101437.69;5118191;27;45293;-74
2022/05/17 02:10:41;;;;;;;;;6.00;6.00;;;;;21.42;53.60;101409.63;5118975;27;45905;-73
2022/05/17 02:13:07;;;;;;;;;7.00;7.00;;;;;21.23;53.78;101377.88;5120221;27;45943;-74
2022/05/17 02:15:32;;;;;;;;;5.33;5.33;;;;;21.39;53.90;101415.44;5100813;27;45479;-74
2022/05/17 02:17:58;;;;;;;;;6.00;6.00;;;;;21.23;53.67;101388.72;5117763;27;45314;-73
2022/05/17 02:20:24;;;;;;;;;5.67;5.00;;;;;21.56;53.39;101434.91;5101738;27;45443;-74
2022/05/17 02:22:50;;;;;;;;;8.33;6.33;;;;;21.28;53.61;101390.84;5121489;27;45949;-75
2022/05/17 02:25:15;;;;;;;;;4.00;4.00;;;;;21.63;53.38;101441.22;5121478;27;45298;-74
2022/05/17 02:27:41;;;;;;;;;6.00;6.00;;;;;20.79;52.96;101300.63;5103019;27;45442;-73
2022/05/17 02:30:09;;;;;;;;;5.33;5.33;;;;;20.99;53.25;101348.59;5121600;27;45397;-75
2022/05/17 02:32:35;;;;;;;;;8.00;6.00;;;;;21.42;52.77;101412.34;5121145;27;46472;-74
2022/05/17 02:35:01;;;;;;;;;6.00;6.00;;;;;21.62;52.47;101447.63;5121669;27;45306;-73
2022/05/17 02:37:26;;;;;;;;;4.33;4.33;;;;;20.82;53.04;101311.06;5121130;27;45319;-73
2022/05/17 02:39:52;;;;;;;;;5.00;4.67;;;;;21.63;52.78;101462.03;5121713;27;45194;-73
2022/05/17 02:42:17;;;;;;;;;5.33;4.33;;;;;21.54;52.45;101435.09;5121011;27;46377;-75
2022/05/17 02:44:43;;;;;;;;;3.33;3.33;;;;;21.65;52.16;101446.41;5121355;27;45444;-73
2022/05/17 02:47:09;;;;;;;;;4.67;4.00;;;;;21.21;52.34;101382.63;5102894;27;45302;-73
2022/05/17 02:49:34;;;;;;;;;1.67;1.00;;;;;21.59;52.37;101442.63;5121343;27;45482;-74
2022/05/17 02:52:01;;;;;;;;;7.00;4.67;;;;;21.33;52.36;101410.84;5121027;27;45681;-75
2022/05/17 02:54:26;;;;;;;;;4.00;4.00;;;;;21.41;52.07;101412.53;5120998;27;45369;-73
2022/05/17 02:56:52;;;;;;;;;8.00;6.33;;;;;21.58;52.22;101445.53;5102637;27;45318;-74
2022/05/17 02:59:19;;;;;;;;;4.33;4.33;;;;;21.58;52.37;101442.81;5102798;27;45524;-72
2022/05/17 03:01:45;;;;;;;;;6.67;6.00;;;;;21.27;52.36;101400.00;5121253;27;45708;-74
2022/05/17 03:04:13;;;;;;;;;5.00;5.00;;;;;21.41;52.46;101440.44;5120970;27;45509;-73
2022/05/17 03:06:39;;;;;;;;;9.33;8.33;;;;;21.39;52.39;101437.09;5121085;27;45420;-72
2022/05/17 03:09:05;;;;;;;;;4.00;3.00;;;;;21.35;52.64;101440.41;5102578;27;45539;-73
2022/05/17 03:11:30;;;;;;;;;6.33;5.00;;;;;20.83;52.60;101342.47;5101815;27;48168;-75
2022/05/17 03:13:55;;;;;;;;;6.33;6.33;;;;;20.97;52.93;101375.81;5102164;27;45478;-74
2022/05/17 03:16:27;;;;;;;;;5.33;4.00;;;;;21.21;52.67;101412.38;5120773;27;45829;-74
2022/05/17 03:18:53;;;;;;;;;3.33;3.33;;;;;20.78;52.70;101358.41;5120848;27;45410;-74
2022/05/17 03:21:18;;;;;;;;;5.33;5.33;;;;;21.13;53.04;101402.56;5101835;27;47735;-75
2022/05/17 03:23:44;;;;;;;;;12.00;5.00;;;;;21.16;52.84;101414.84;5101739;27;45422;-74
2022/05/17 03:26:10;;;;;;;;;5.00;5.00;;;;;21.28;52.91;101448.47;5120592;27;45671;-75
2022/05/17 03:28:36;;;;;;;;;4.33;3.00;;;;;21.13;52.67;101415.25;5120951;27;45545;-72
2022/05/17 03:31:05;;;;;;;;;5.33;4.00;;;;;21.07;52.62;101400.66;5100747;27;45488;-74
2022/05/17 03:33:31;;;;;;;;;6.33;5.33;;;;;20.85;52.73;101370.13;5120336;27;45383;-73
2022/05/17 03:35:56;;;;;;;;;7.33;4.67;;;;;20.93;52.62;101382.66;5120255;27;45453;-76
2022/05/17 03:38:22;;;;;;;;;6.00;6.00;;;;;20.87;52.65;101381.59;5102002;27;45581;-74
2022/05/17 03:40:47;;;;;;;;;5.00;3.33;;;;;21.21;52.89;101428.59;5120384;27;46603;-73
2022/05/17 03:43:13;;;;;;;;;7.33;6.00;;;;;20.98;52.99;101395.56;5120490;27;45508;-74
2022/05/17 03:45:39;;;;;;;;;5.67;5.67;;;;;20.96;53.17;101403.88;5102569;27;45500;-73
2022/05/17 03:48:05;;;;;;;;;7.00;5.00;;;;;20.25;53.43;101287.72;5105763;27;45279;-76
2022/05/17 03:50:30;;;;;;;;;6.00;5.33;;;;;21.05;53.65;101428.94;5101316;27;46238;-74
2022/05/17 03:52:55;;;;;;;;;7.67;7.67;;;;;20.60;53.96;101375.09;5120074;27;45377;-75
2022/05/17 03:55:21;;;;;;;;;8.00;6.00;;;;;20.96;54.01;101444.44;5101607;27;45693;-75
2022/05/17 03:57:46;;;;;;;;;5.00;5.00;;;;;20.80;54.50;101421.22;5120201;27;45284;-74
2022/05/17 04:00:12;;;;;;;;;8.33;8.00;;;;;20.95;54.55;101440.91;5119616;27;46450;-74
2022/05/17 04:02:37;;;;;;;;;6.33;6.33;;;;;20.70;55.00;101404.50;5119849;27;45528;-74
2022/05/17 04:05:03;;;;;;;;;8.33;6.67;;;;;20.24;55.21;101345.47;5119996;27;45262;-74
2022/05/17 04:07:29;;;;;;;;;6.00;6.00;;;;;20.74;55.43;101442.78;5120209;27;45252;-74
2022/05/17 04:09:55;;;;;;;;;9.00;6.67;;;;;20.28;55.68;101368.34;5119917;27;46676;-75
2022/05/17 04:12:20;;;;;;;;;8.67;7.00;;;;;20.42;55.65;101384.69;5100722;27;45389;-73
2022/05/17 04:14:45;;;;;;;;;10.00;8.00;;;;;20.74;55.90;101451.72;5119710;27;45330;-75
2022/05/17 04:17:11;;;;;;;;;6.67;6.67;;;;;20.67;56.00;101442.72;5119688;27;45203;-75
2022/05/17 04:19:37;;;;;;;;;9.00;9.00;;;;;20.69;55.75;101453.34;5101017;27;47576;-73
2022/05/17 04:22:06;;;;;;;;;9.00;8.00;;;;;20.29;56.14;101388.91;5119477;27;45525;-73
2022/05/17 04:24:32;;;;;;;;;7.67;5.33;;;;;19.94;56.11;101322.28;5119255;27;45417;-75
2022/05/17 04:26:57;;;;;;;;;8.33;8.33;;;;;20.69;56.28;101446.06;5101254;27;45329;-73
2022/05/17 04:29:23;;;;;;;;;9.33;8.67;;;;;20.60;56.28;101439.09;5119264;27;46078;-74
2022/05/17 04:31:48;;;;;;;;;9.67;8.67;;;;;20.63;56.24;101430.63;5100959;27;45362;-74
2022/05/17 04:34:13;;;;;;;;;11.00;6.33;;;;;20.60;56.45;101433.69;5119352;27;45445;-74
2022/05/17 04:36:39;;;;;;;;;10.00;9.00;;;;;20.54;56.34;101416.41;5100857;27;45201;-75
2022/05/17 04:39:05;;;;;;;;;6.67;6.67;;;;;20.35;56.26;101384.59;5119316;27;46998;-73
2022/05/17 04:41:30;;;;;;;;;8.00;8.00;;;;;20.86;55.85;101471.81;5119404;27;45255;-74
2022/05/17 04:43:56;;;;;;;;;8.67;7.00;;;;;20.01;55.80;101323.19;5100691;27;45479;-74
2022/05/17 04:46:21;;;;;;;;;5.67;4.33;;;;;20.74;55.96;101443.63;5120313;27;45338;-74
2022/05/17 04:48:47;;;;;;;;;10.00;9.33;;;;;20.87;56.12;101473.47;5120541;27;45993;-72
2022/05/17 04:51:14;;;;;;;;;6.67;6.00;;;;;20.44;55.92;101399.69;5100229;27;45255;-73
2022/05/17 04:53:41;;;;;;;;;14.00;14.00;;;;;20.21;56.00;101356.63;5119140;27;45422;-73
2022/05/17 04:56:08;;;;;;;;;16.00;12.33;;;;;20.93;56.22;101470.00;5100566;27;45478;-72
2022/05/17 04:58:33;;;;;;;;;12.33;12.33;;;;;20.91;57.38;101455.00;5100067;27;45488;-74
2022/05/17 05:00:59;;;;;;;;;15.33;13.33;;;;;20.66;57.42;101419.44;5100420;27;45358;-75
2022/05/17 05:03:25;;;;;;;;;7.00;7.00;;;;;20.86;56.83;101441.25;5119079;27;45438;-74
2022/05/17 05:05:50;;;;;;;;;8.00;8.00;;;;;20.76;56.28;101417.22;5100560;27;45257;-74
2022/05/17 05:08:16;;;;;;;;;9.00;7.00;;;;;21.02;55.74;101461.72;5118964;27;45496;-75
2022/05/17 05:10:44;;;;;;;;;10.67;7.00;;;;;20.67;55.98;101421.13;5100479;27;45377;-74
2022/05/17 05:13:20;;;;;;;;;9.33;8.67;;;;;18.29;55.83;101024.66;5100201;27;45371;-75
2022/05/17 05:15:46;;;;;;;;;12.33;9.33;;;;;20.31;55.86;101351.75;5101138;27;45469;-75
2022/05/17 05:18:12;;;;;;;;;9.00;8.67;;;;;21.01;55.82;101469.00;5101323;27;48570;-75
2022/05/17 05:20:41;;;;;;;;;10.33;9.00;;;;;21.10;55.83;101475.13;5103949;27;45771;-77
2022/05/17 05:23:07;;;;;;;;;11.00;9.67;;;;;21.05;55.71;101461.38;5100627;27;45264;-75
2022/05/17 05:25:33;;;;;;;;;12.00;10.50;;;;;21.14;56.16;101471.84;5118770;27;45257;-76
2022/05/17 05:27:58;;;;;;;;;11.00;7.00;;;;;21.29;56.56;101496.13;5099458;27;47523;-77
2022/05/17 05:30:24;;;;;;;;;9.00;7.33;;;;;21.00;55.98;101443.00;5100144;27;46289;-75
2022/05/17 05:32:50;;;;;;;;;7.33;7.33;;;;;21.36;55.71;101494.28;5099796;27;45442;-77
2022/05/17 05:35:17;;;;;;;;;12.00;10.67;;;;;21.18;56.21;101456.03;5100223;27;45576;-76
2022/05/17 05:37:43;;;;;;;;;9.67;7.67;;;;;21.40;55.45;101482.03;5099890;27;48570;-75
2022/05/17 05:40:12;;;;;;;;;11.67;9.33;;;;;21.43;55.38;101473.56;5118738;27;45214;-75
2022/05/17 05:42:39;;;;;;;;;10.33;9.00;;;;;21.31;54.52;101450.78;5100349;27;45406;-74
2022/05/17 05:45:06;;;;;;;;;9.33;8.00;;;;;21.35;54.91;101457.47;5118433;27;45613;-75
2022/05/17 05:47:31;;;;;;;;;8.33;6.00;;;;;21.46;54.60;101469.63;5118577;27;46593;-76
2022/05/17 05:49:57;;;;;;;;;8.33;8.33;;;;;21.36;54.46;101448.31;5099559;27;45763;-74
2022/05/17 05:52:23;;;;;;;;;8.33;7.67;;;;;21.12;54.65;101408.16;5099808;27;45606;-75
2022/05/17 05:54:48;;;;;;;;;10.00;10.00;;;;;21.40;53.89;101451.44;5100134;27;45557;-74
2022/05/17 05:57:14;;;;;;;;;9.33;9.33;;;;;21.69;54.18;101483.72;5118733;27;45259;-77
2022/05/17 05:59:41;;;;;;;;;12.33;11.33;;;;;21.93;54.35;101509.44;5118802;27;45287;-74
2022/05/17 06:02:08;;;;;;;;;13.67;11.33;;;;;21.69;53.86;101456.66;5100035;27;45507;-77
2022/05/17 06:04:33;;;;;;;;;8.00;8.00;;;;;21.48;53.86;101416.97;5118526;27;45467;-74
2022/05/17 06:06:59;;;;;;;;;9.00;7.00;;;;;22.15;53.52;101513.75;5099788;27;47244;-77
2022/05/17 06:09:25;;;;;;;;;8.67;7.33;;;;;21.93;52.94;101441.75;5119297;27;45379;-77
2022/05/17 06:11:51;;;;;;;;;9.33;9.33;;;;;22.38;52.24;101421.31;5100986;27;45353;-77
2022/05/17 06:14:16;;;;;;;;;10.33;10.33;;;;;23.55;50.38;101515.69;5100054;27;45530;-77
2022/05/17 06:16:42;;;;;;;;;10.33;10.33;;;;;23.26;48.78;101337.91;5118432;27;45421;-75
2022/05/17 06:19:07;;;;;;;;;8.67;8.00;;;;;25.02;46.87;101506.78;5118931;27;45306;-76
2022/05/17 06:21:33;;;;;;;;;10.33;9.33;;;;;25.80;45.88;101510.91;5119084;27;45474;-78
2022/05/17 06:23:59;;;;;;;;;11.00;10.33;;;;;26.41;44.52;101493.63;5099687;27;45541;-74
2022/05/17 06:26:24;;;;;;;;;9.00;7.67;;;;;26.96;42.96;101481.47;5098905;27;47936;-77
2022/05/17 06:28:50;;;;;;;;;8.00;8.00;;;;;27.82;42.08;101512.78;5117815;27;45298;-76
2022/05/17 06:31:16;;;;;;;;;7.33;7.00;;;;;28.23;39.46;101466.34;5099688;27;45471;-78
2022/05/17 06:33:41;;;;;;;;;9.67;9.00;;;;;28.84;38.53;101475.72;5118520;27;45446;-78
2022/05/17 06:36:07;;;;;;;;;9.00;9.00;;;;;29.56;37.39;101505.94;5099617;27;47260;-77
2022/05/17 06:38:33;;;;;;;;;12.33;9.00;;;;;28.51;36.39;101257.66;5118370;27;45311;-76
2022/05/17 06:40:59;;;;;;;;;16.33;12.00;;;;;30.33;34.91;101483.94;5119152;27;45279;-76
2022/05/17 06:43:24;;;;;;;;;11.67;10.33;;;;;30.37;34.50;101407.44;5099157;27;45348;-75
2022/05/17 06:45:50;;;;;;;;;9.67;9.00;;;;;31.09;33.88;101470.97;5098986;27;47953;-74
2022/05/17 06:48:15;;;;;;;;;9.00;7.67;;;;;31.63;32.57;101489.19;5098959;27;45477;-78
2022/05/17 06:50:41;;;;;;;;;7.67;7.67;;;;;32.01;31.04;101496.28;5099800;27;45561;-78
2022/05/17 06:53:07;;;;;;;;;7.00;7.00;;;;;30.69;30.19;101251.03;5102134;27;45509;-78
2022/05/17 06:55:34;;;;;;;;;5.00;5.00;;;;;32.47;30.93;101479.97;5101356;27;48711;-78
2022/05/17 06:57:59;;;;;;;;;7.67;7.67;;;;;32.86;29.86;101483.06;5099386;27;46954;-77
2022/05/17 07:00:25;;;;;;;;;8.67;8.67;;;;;32.74;29.27;101436.47;5099228;27;45488;-75
2022/05/17 07:02:50;;;;;;;;;11.67;11.67;;;;;33.23;30.95;101494.59;5099186;27;45296;-71
2022/05/17 07:05:16;;;;;;;;;8.67;8.00;;;;;33.49;29.60;101489.09;5118067;27;46250;-73
2022/05/17 07:07:42;;;;;;;;;7.00;6.33;;;;;33.69;29.60;101468.91;5120888;27;45251;-76
2022/05/17 07:13:08;;;;;;;;;6.00;6.00;;;;;34.35;26.56;101491.56;5121451;27;45705;-74
2022/05/17 07:15:40;;;;;;;;;8.33;7.00;;;;;34.52;26.93;101493.13;5101727;27;48403;-74
2022/05/17 07:18:07;;;;;;;;;10.33;8.67;;;;;34.64;26.22;101480.59;5120510;27;45539;-75
2022/05/17 07:20:32;;;;;;;;;5.33;5.33;;;;;34.68;26.41;101473.38;5102550;27;45556;-77
2022/05/17 07:22:58;;;;;;;;;6.00;6.00;;;;;34.88;25.37;101490.94;5102086;27;45473;-73
2022/05/17 07:25:23;;;;;;;;;6.00;6.00;;;;;34.99;25.97;101465.69;5101825;27;48570;-76
2022/05/17 07:27:49;;;;;;;;;11.00;9.00;;;;;35.18;25.45;101451.97;5120982;27;45323;-77
2022/05/17 07:30:15;;;;;;;;;10.67;8.00;;;;;35.04;24.14;101401.25;5102372;27;45423;-78
2022/05/17 07:32:40;;;;;;;;;16.33;15.33;;;;;35.83;26.03;101488.34;5102344;27;45335;-76
2022/05/17 07:35:09;;;;;;;;;9.67;7.67;;;;;36.03;23.71;101467.06;5120870;27;45314;-76
2022/05/17 07:37:36;;;;;;;;;8.67;6.33;;;;;34.69;24.00;101223.69;5120843;27;45532;-76
2022/05/17 07:40:02;;;;;;;;;9.00;7.67;;;;;35.91;23.95;101371.47;5102042;27;45388;-74
2022/05/17 07:42:27;;;;;;;;;6.00;4.00;;;;;36.95;22.12;101489.53;5101982;27;45658;-71
2022/05/17 07:44:54;;;;;;;;;5.33;4.33;;;;;37.16;21.89;101490.84;5102006;27;47450;-75
2022/05/17 07:47:20;;;;;;;;;4.67;4.00;;;;;37.02;20.94;101472.50;5121102;27;45223;-74
2022/05/17 07:49:45;;;;;;;;;5.00;5.00;;;;;37.09;21.70;101490.41;5120251;27;45271;-75
2022/05/17 07:52:12;;;;;;;;;7.67;7.33;;;;;37.07;21.43;101489.91;5120939;27;45436;-75
2022/05/17 07:54:37;;;;;;;;;5.00;5.00;;;;;37.00;21.86;101486.69;5120500;27;47021;-73
2022/05/17 07:57:04;;;;;;;;;5.00;5.00;;;;;36.73;20.91;101439.47;5101597;27;45473;-76
2022/05/17 07:59:30;;;;;;;;;4.33;4.00;;;;;36.96;20.95;101480.09;5121036;27;45408;-75
2022/05/17 08:01:58;;;;;;;;;8.67;5.33;;;;;36.27;21.30;101390.31;5102739;27;45212;-76
2022/05/17 08:04:23;;;;;;;;;5.33;5.33;;;;;36.80;20.98;101482.31;5120495;27;45563;-76
2022/05/17 08:06:50;;;;;;;;;5.67;5.67;;;;;36.68;20.96;101494.97;5101712;27;45336;-75
2022/05/17 08:09:16;;;;;;;;;4.00;4.00;;;;;36.49;20.37;101472.81;5120087;27;45256;-75
2022/05/17 08:11:42;;;;;;;;;6.00;6.00;;;;;36.31;21.09;101480.00;5101529;27;45574;-75
2022/05/17 08:14:08;;;;;;;;;3.00;3.00;;;;;36.10;21.14;101439.84;5101149;27;47584;-76
2022/05/17 08:16:34;;;;;;;;;3.00;3.00;;;;;36.26;19.48;101444.06;5101273;27;45574;-76
2022/05/17 08:18:59;;;;;;;;;4.00;4.00;;;;;36.35;19.36;101442.28;5100806;27;45350;-75
2022/05/17 08:21:25;;;;;;;;;3.00;3.00;;;;;36.39;18.38;101465.47;5120023;27;45494;-75
2022/05/17 08:23:50;;;;;;;;;3.00;3.00;;;;;35.65;18.93;101361.88;5102046;27;47425;-75
2022/05/17 08:29:00;;;;;;;;;6.33;5.00;;;;;35.96;20.29;101418.44;5119936;27;45518;-75
2022/05/17 08:31:25;;;;;;;;;5.67;5.00;;;;;36.29;20.86;101484.16;5101396;27;45480;-76
2022/05/17 08:33:51;;;;;;;;;5.33;5.33;;;;;36.31;20.25;101490.22;5119186;27;45727;-74
2022/05/17 08:36:17;;;;;;;;;3.00;3.00;;;;;35.89;20.83;101400.56;5119455;27;45440;-73
2022/05/17 08:38:48;;;;;;;;;4.33;4.33;;;;;36.36;20.07;101443.94;5119755;27;45322;-72
2022/05/17 08:41:26;;;;;;;;;5.00;5.00;;;;;36.82;17.96;101491.13;5120142;27;45444;-71
2022/05/17 08:44:00;;;;;;;;;10.67;7.67;;;;;36.90;18.20;101458.31;5119325;27;47124;-73
2022/05/17 08:46:44;;;;;;;;;5.33;4.33;;;;;37.05;18.45;101478.28;5119171;27;45434;-73
2022/05/17 08:49:29;;;;;;;;;3.00;3.00;;;;;37.16;17.30;101468.66;5119140;27;45323;-72
2022/05/17 08:52:02;;;;;;;;;5.33;5.33;;;;;37.45;17.32;101473.16;5119326;27;45480;-75
2022/05/17 08:54:41;;;;;;;;;0.00;0.00;;;;;37.50;15.78;101448.06;5100493;27;48614;-74
2022/05/17 08:57:18;;;;;;;;;2.67;2.67;;;;;37.51;15.55;101452.50;5100320;27;47225;-72
2022/05/17 08:59:47;;;;;;;;;1.33;1.33;;;;;37.67;15.08;101478.81;5100281;27;45549;-74
2022/05/17 09:02:41;;;;;;;;;4.00;2.00;;;;;37.79;15.59;101474.69;5099676;27;45430;-73
2022/05/17 09:05:25;;;;;;;;;3.33;3.33;;;;;38.03;15.62;101480.84;5118979;27;46712;-73
2022/05/17 09:08:02;;;;;;;;;3.00;1.33;;;;;38.18;14.78;101458.31;5118773;27;45196;-73
2022/05/17 09:10:38;;;;;;;;;2.67;2.67;;;;;38.23;15.37;101429.59;5118653;27;45597;-74
2022/05/17 09:13:31;;;;;;;;;2.33;2.33;;;;;38.00;15.36;101360.13;5118931;27;45341;-74
2022/05/17 09:15:59;;;;;;;;;1.00;1.00;;;;;38.30;15.10;101368.91;5118694;27;45792;-74
2022/05/17 09:18:29;;;;;;;;;2.67;2.67;;;;;38.96;13.81;101470.06;5118559;27;45497;-72
2022/05/17 09:20:57;;;;;;;;;0.67;0.33;;;;;38.67;14.86;101473.31;5118245;27;45335;-73
2022/05/17 09:23:23;;;;;;;;;1.33;1.33;;;;;37.82;14.65;101338.06;5118515;27;45454;-76
2022/05/17 09:26:01;;;;;;;;;3.00;2.00;;;;;38.53;14.82;101464.19;5099835;27;46606;-71
2022/05/17 09:28:42;;;;;;;;;3.00;2.00;;;;;38.08;14.59;101405.78;5117734;27;45354;-72
2022/05/17 09:31:09;;;;;;;;;1.00;1.00;;;;;38.47;14.45;101465.44;5118286;27;45546;-72
2022/05/17 09:33:38;;;;;;;;;2.67;1.33;;;;;38.06;14.55;101430.25;5118279;27;45424;-73
2022/05/17 09:36:05;;;;;;;;;1.00;1.00;;;;;38.16;14.79;101430.00;5118274;27;46211;-74
2022/05/17 09:38:34;;;;;;;;;2.33;2.33;;;;;38.53;14.28;101461.41;5118494;27;45225;-75
2022/05/17 09:41:00;;;;;;;;;0.67;0.33;;;;;38.82;14.02;101447.88;5118997;27;45537;-74
2022/05/17 09:43:46;;;;;;;;;1.00;1.00;;;;;38.45;14.21;101362.16;5118728;27;45290;-74
2022/05/17 09:46:34;;;;;;;;;1.00;1.00;;;;;39.08;14.39;101425.03;5118875;27;46680;-72
2022/05/17 09:54:51;;;;;;;;;2.00;2.00;;;;;39.60;13.11;101439.16;5118486;27;45203;-76
2022/05/17 09:57:31;;;;;;;;;1.00;1.00;;;;;38.26;12.75;101279.84;5118530;27;45344;-73
2022/05/17 10:00:13;;;;;;;;;2.00;1.00;;;;;38.46;13.28;101353.50;5118475;27;45280;-76
2022/05/17 10:02:53;;;;;;;;;1.33;0.67;;;;;38.13;13.63;101422.31;5099707;27;45480;-72
2022/05/17 10:05:23;;;;;;;;;2.67;1.67;;;;;37.61;14.22;101452.28;5118340;27;45374;-74
2022/05/17 10:08:14;;;;;;;;;0.33;0.33;;;;;36.94;14.80;101449.09;5117741;27;45843;-74
2022/05/17 10:10:43;;;;;;;;;1.33;1.33;;;;;36.13;14.98;101450.34;5052074;27;46358;-74
2022/05/17 10:13:20;;;;;;;;;0.33;0.33;;;;;35.49;16.07;101441.44;5117982;27;45239;-76
2022/05/17 10:16:07;;;;;;;;;1.00;1.00;;;;;34.88;17.05;101431.00;5118179;27;45668;-75
2022/05/17 10:18:36;;;;;;;;;1.67;1.67;;;;;33.95;17.92;101440.13;5099239;27;45959;-73
2022/05/17 10:21:48;;;;;;;;;2.00;2.00;;;;;33.32;18.53;101439.78;5118236;27;45450;-74
2022/05/17 10:24:25;;;;;;;;;2.00;1.00;;;;;32.84;18.48;101433.78;5082010;27;46562;-73
2022/05/17 10:27:02;;;;;;;;;0.33;0.33;;;;;32.31;19.24;101435.91;5118210;27;45554;-74
2022/05/17 10:29:36;;;;;;;;;3.33;2.00;;;;;31.77;19.47;101403.25;5098824;27;46503;-73
2022/05/17 10:32:26;;;;;;;;;2.33;2.33;;;;;31.66;20.57;101420.78;5098564;27;45228;-72
2022/05/17 10:35:16;;;;;;;;;2.00;2.00;;;;;31.46;20.57;101417.94;5117746;27;45619;-73
2022/05/17 10:37:46;;;;;;;;;3.33;3.00;;;;;31.14;20.64;101385.84;5100389;27;45384;-74
2022/05/17 10:40:16;;;;;;;;;2.00;2.00;;;;;30.99;21.22;101404.13;5119082;27;46496;-73
2022/05/17 10:42:43;;;;;;;;;1.33;1.33;;;;;30.23;22.23;101317.31;5122302;27;45244;-73
2022/05/17 10:45:19;;;;;;;;;1.00;1.00;;;;;30.61;22.48;101407.91;5122414;27;45218;-74
2022/05/17 10:48:06;;;;;;;;;4.67;2.33;;;;;30.34;22.97;101386.84;5103359;27;45417;-72
2022/05/17 10:50:37;;;;;;;;;3.00;3.00;;;;;30.39;24.00;101399.75;5121298;27;45556;-74
2022/05/17 10:53:26;;;;;;;;;4.00;2.00;;;;;30.26;23.92;101401.03;5102768;27;45424;-75
2022/05/17 10:55:58;;;;;;;;;5.00;3.00;;;;;30.10;23.82;101385.50;5121312;27;45574;-73
2022/05/17 10:58:36;;;;;;;;;3.00;2.00;;;;;29.97;23.91;101389.44;5102639;27;45515;-75
2022/05/17 11:01:12;;;;;;;;;3.00;3.00;;;;;29.52;24.42;101341.22;5121031;27;45385;-73
2022/05/17 11:04:09;;;;;;;;;3.00;2.00;;;;;29.65;24.81;101403.06;5121352;27;45630;-73
2022/05/17 11:07:05;;;;;;;;;4.33;3.67;;;;;29.49;24.83;101390.22;5122009;27;45320;-73
2022/05/17 11:09:52;;;;;;;;;2.67;1.33;;;;;29.23;26.39;101389.81;5121802;27;45299;-74
2022/05/17 11:12:24;;;;;;;;;5.00;5.00;;;;;29.12;26.14;101381.75;5123284;27;46663;-73
2022/05/17 11:14:52;;;;;;;;;4.00;3.00;;;;;29.15;26.23;101390.28;5122006;27;45229;-75
2022/05/17 11:17:36;;;;;;;;;3.00;3.00;;;;;29.06;26.46;101380.84;5102781;27;45452;-73
2022/05/17 11:20:16;;;;;;;;;3.00;3.00;;;;;29.02;26.81;101382.41;5123097;27;45326;-73
2022/05/17 11:23:02;;;;;;;;;3.00;3.00;;;;;28.73;27.67;101366.06;5121135;27;45462;-73
2022/05/17 11:26:04;;;;;;;;;4.33;2.67;;;;;28.82;27.75;101368.38;5120777;27;45299;-74
2022/05/17 11:29:00;;;;;;;;;5.67;4.00;;;;;28.85;27.64;101363.25;5016929;28;45450;-74
2022/05/17 11:31:28;;;;;;;;;5.67;5.00;;;;;28.81;27.82;101372.19;5121254;27;45436;-74
2022/05/17 11:34:36;;;;;;;;;2.00;2.00;;;;;28.58;27.80;101335.72;5120631;27;46218;-75
2022/05/17 11:37:05;;;;;;;;;6.67;5.33;;;;;28.69;27.72;101340.28;5120513;27;45543;-72
2022/05/17 11:39:31;;;;;;;;;4.00;3.00;;;;;28.82;27.80;101371.09;5102519;27;45488;-73
2022/05/17 11:42:30;;;;;;;;;4.00;4.00;;;;;28.75;28.87;101347.50;5120669;27;45404;-72
2022/05/17 11:45:16;;;;;;;;;4.00;4.00;;;;;28.39;29.19;101274.13;5101658;27;47004;-73
2022/05/17 11:47:42;;;;;;;;;5.67;4.67;;;;;28.95;29.07;101340.69;5101594;27;45324;-73
2022/05/17 11:50:16;;;;;;;;;2.00;2.00;;;;;28.99;29.32;101341.84;5120238;27;45476;-72
2022/05/17 11:52:47;;;;;;;;;4.67;3.33;;;;;28.91;28.75;101321.22;5119320;27;45207;-73